createdAt,value
2023-02-04T00:01:02.840Z,10.30
2023-02-04T00:03:29.667Z,9.50
2023-02-04T00:05:56.563Z,10.07
2023-02-04T00:08:23.807Z,7.68
2023-02-04T00:10:50.663Z,9.00
2023-02-04T00:13:17.507Z,7.90
2023-02-04T00:15:44.343Z,6.80
2023-02-04T00:18:11.319Z,5.85
2023-02-04T00:20:38.191Z,6.35
2023-02-04T00:23:05.133Z,5.90
2023-02-04T00:25:32.038Z,6.10
2023-02-04T00:27:58.984Z,5.35
2023-02-04T00:30:26.775Z,5.55
2023-02-04T00:32:54.988Z,5.28
2023-02-04T00:35:23.293Z,5.70
2023-02-04T00:37:51.104Z,4.93
2023-02-04T00:40:18.354Z,5.20
2023-02-04T00:42:45.211Z,4.72
2023-02-04T00:45:13.424Z,4.15
2023-02-04T00:47:40.363Z,4.45
2023-02-04T00:50:07.796Z,4.00
2023-02-04T00:52:34.674Z,4.47
2023-02-04T00:55:01.612Z,4.05
2023-02-04T00:57:28.481Z,3.97
2023-02-04T00:59:55.319Z,3.95
2023-02-04T01:02:22.282Z,3.75
2023-02-04T01:04:49.112Z,4.05
2023-02-04T01:07:16.012Z,4.05
2023-02-04T01:09:42.824Z,3.80
2023-02-04T01:12:09.762Z,3.15
2023-02-04T01:14:36.598Z,3.40
2023-02-04T01:17:03.506Z,3.50
2023-02-04T01:19:30.383Z,3.55
2023-02-04T01:21:57.201Z,3.20
2023-02-04T01:24:24.121Z,3.53
2023-02-04T01:26:50.984Z,3.22
2023-02-04T01:29:17.826Z,3.00
2023-02-04T01:31:44.881Z,3.50
2023-02-04T01:34:11.711Z,3.40
2023-02-04T01:36:38.530Z,3.00
2023-02-04T01:39:05.314Z,2.47
2023-02-04T01:41:32.279Z,2.95
2023-02-04T01:43:59.613Z,2.83
2023-02-04T01:46:26.717Z,2.38
2023-02-04T01:48:54.182Z,2.40
2023-02-04T01:51:28.402Z,2.40
2023-02-04T01:53:56.149Z,2.30
2023-02-04T01:56:28.650Z,2.60
2023-02-04T01:58:57.978Z,3.15
2023-02-04T02:01:54.425Z,2.60
2023-02-04T02:04:33.175Z,2.85
2023-02-04T02:07:06.385Z,2.53
2023-02-04T02:09:34.785Z,2.28
2023-02-04T02:12:03.899Z,2.63
2023-02-04T02:14:30.753Z,2.63
2023-02-04T02:16:58.123Z,3.40
2023-02-04T02:19:37.487Z,3.17
2023-02-04T02:22:36.714Z,2.80
2023-02-04T02:25:12.947Z,3.00
2023-02-04T02:27:40.552Z,3.17
2023-02-04T02:30:10.728Z,3.03
2023-02-04T02:32:39.133Z,2.90
2023-02-04T02:35:07.185Z,3.30
2023-02-04T02:37:34.162Z,3.58
2023-02-04T02:40:01.234Z,3.03
2023-02-04T02:42:28.510Z,3.30
2023-02-04T02:44:55.432Z,2.67
2023-02-04T02:47:23.744Z,2.45
2023-02-04T02:49:54.610Z,2.40
2023-02-04T02:52:22.983Z,2.40
2023-02-04T02:54:50.208Z,2.80
2023-02-04T02:57:21.338Z,3.28
2023-02-04T02:59:48.844Z,3.05
2023-02-04T03:02:23.599Z,3.35
2023-02-04T03:04:58.495Z,4.85
2023-02-04T03:07:25.884Z,3.28
2023-02-04T03:09:54.365Z,3.33
2023-02-04T03:12:21.414Z,3.15
2023-02-04T03:14:48.360Z,3.17
2023-02-04T03:17:15.674Z,3.22
2023-02-04T03:19:43.028Z,3.30
2023-02-04T03:22:10.156Z,3.22
2023-02-04T03:24:37.658Z,2.67
2023-02-04T03:27:04.735Z,2.47
2023-02-04T03:29:31.613Z,3.20
2023-02-04T03:32:00.063Z,2.70
2023-02-04T03:34:27.218Z,2.92
2023-02-04T03:36:54.248Z,2.65
2023-02-04T03:39:21.205Z,2.85
2023-02-04T03:41:48.044Z,2.83
2023-02-04T03:44:14.918Z,2.60
2023-02-04T03:46:41.766Z,2.35
2023-02-04T03:49:08.634Z,2.10
2023-02-04T03:51:35.541Z,2.28
2023-02-04T03:54:02.406Z,2.00
2023-02-04T03:56:29.225Z,2.33
2023-02-04T03:58:57.259Z,2.45
2023-02-04T04:01:24.183Z,2.30
2023-02-04T04:03:51.038Z,2.22
2023-02-04T04:06:17.897Z,1.65
2023-02-04T04:08:44.728Z,2.00
2023-02-04T04:11:11.808Z,1.75
2023-02-04T04:13:38.697Z,1.50
2023-02-04T04:16:06.142Z,2.00
2023-02-04T04:18:34.063Z,1.48
2023-02-04T04:21:01.192Z,1.83
2023-02-04T04:23:28.045Z,1.40
2023-02-04T04:25:54.907Z,1.30
2023-02-04T04:28:21.779Z,1.60
2023-02-04T04:30:48.622Z,1.50
2023-02-04T04:33:15.465Z,1.30
2023-02-04T04:35:42.302Z,1.63
2023-02-04T04:38:09.093Z,1.35
2023-02-04T04:40:35.916Z,1.40
2023-02-04T04:43:03.596Z,1.70
2023-02-04T04:45:30.440Z,1.20
2023-02-04T04:47:57.471Z,1.70
2023-02-04T04:50:24.331Z,1.50
2023-02-04T04:52:51.212Z,1.90
2023-02-04T04:55:18.117Z,1.58
2023-02-04T04:57:45.405Z,1.90
2023-02-04T05:00:17.567Z,1.95
2023-02-04T05:02:44.564Z,1.90
2023-02-04T05:05:13.284Z,2.70
2023-02-04T05:07:40.206Z,2.17
2023-02-04T05:10:07.674Z,1.90
2023-02-04T05:12:34.489Z,2.05
2023-02-04T05:15:01.329Z,2.35
2023-02-04T05:17:28.776Z,2.35
2023-02-04T05:19:55.641Z,1.90
2023-02-04T05:22:22.532Z,2.80
2023-02-04T05:24:49.360Z,2.22
2023-02-04T05:27:16.262Z,2.08
2023-02-04T05:29:43.187Z,1.90
2023-02-04T05:32:10.082Z,1.63
2023-02-04T05:34:37.703Z,1.95
2023-02-04T05:37:05.531Z,1.75
2023-02-04T05:39:32.326Z,2.80
2023-02-04T05:41:59.162Z,2.55
2023-02-04T05:44:27.486Z,2.97
2023-02-04T05:46:54.402Z,2.88
2023-02-04T05:49:21.284Z,2.80
2023-02-04T05:51:48.130Z,2.53
2023-02-04T05:54:19.364Z,2.10
2023-02-04T05:56:47.929Z,2.50
2023-02-04T05:59:15.055Z,2.65
2023-02-04T06:01:41.943Z,2.45
2023-02-04T06:04:08.764Z,2.50
2023-02-04T06:06:35.992Z,2.50
2023-02-04T06:09:03.861Z,3.35
2023-02-04T06:11:30.679Z,3.00
2023-02-04T06:13:57.652Z,2.67
2023-02-04T06:16:24.594Z,2.67
2023-02-04T06:18:51.507Z,3.35
2023-02-04T06:21:18.518Z,3.50
2023-02-04T06:23:45.559Z,3.55
2023-02-04T06:26:12.445Z,2.90
2023-02-04T06:28:39.293Z,2.83
2023-02-04T06:31:06.316Z,2.72
2023-02-04T06:33:33.150Z,1.70
2023-02-04T06:36:00.019Z,2.30
2023-02-04T06:38:26.810Z,2.70
2023-02-04T06:40:53.839Z,2.60
2023-02-04T06:43:22.425Z,2.72
2023-02-04T06:45:51.014Z,1.90
2023-02-04T06:48:19.225Z,2.30
2023-02-04T06:50:46.120Z,2.40
2023-02-04T06:53:13.014Z,2.97
2023-02-04T06:55:39.891Z,2.58
2023-02-04T06:58:06.792Z,2.70
2023-02-04T07:00:34.199Z,2.55
2023-02-04T07:03:01.406Z,2.78
2023-02-04T07:05:28.374Z,3.40
2023-02-04T07:07:55.260Z,3.50
2023-02-04T07:10:22.106Z,3.38
2023-02-04T07:12:49.112Z,2.70
2023-02-04T07:15:18.796Z,3.50
2023-02-04T07:17:45.671Z,3.72
2023-02-04T07:20:12.826Z,2.80
2023-02-04T07:22:39.787Z,2.50
2023-02-04T07:25:07.125Z,2.47
2023-02-04T07:27:34.020Z,3.15
2023-02-04T07:30:00.822Z,3.00
2023-02-04T07:32:32.694Z,3.50
2023-02-04T07:35:02.607Z,3.10
2023-02-04T07:37:29.490Z,3.10
2023-02-04T07:39:56.361Z,3.13
2023-02-04T07:42:23.237Z,3.38
2023-02-04T07:44:50.034Z,3.08
2023-02-04T07:47:16.879Z,2.92
2023-02-04T07:49:43.686Z,2.58
2023-02-04T07:52:10.591Z,2.85
2023-02-04T07:54:37.391Z,3.47
2023-02-04T07:57:04.224Z,3.50
2023-02-04T07:59:31.036Z,3.05
2023-02-04T08:01:57.977Z,3.40
2023-02-04T08:04:24.835Z,3.10
2023-02-04T08:06:51.658Z,2.92
2023-02-04T08:09:18.474Z,3.17
2023-02-04T08:11:45.297Z,3.22
2023-02-04T08:14:12.398Z,3.15
2023-02-04T08:16:39.370Z,3.10
2023-02-04T08:19:06.254Z,3.25
2023-02-04T08:21:33.214Z,3.35
2023-02-04T08:24:00.092Z,3.60
2023-02-04T08:26:26.935Z,3.88
2023-02-04T08:28:53.770Z,4.10
2023-02-04T08:31:20.812Z,4.10
2023-02-04T08:33:47.850Z,3.80
2023-02-04T08:36:14.642Z,4.32
2023-02-04T08:38:41.515Z,4.05
2023-02-04T08:41:08.572Z,3.83
2023-02-04T08:43:36.843Z,4.15
2023-02-04T08:46:03.998Z,3.63
2023-02-04T08:48:30.858Z,3.97
2023-02-04T08:50:57.710Z,3.67
2023-02-04T08:53:24.656Z,4.05
2023-02-04T08:55:51.539Z,4.00
2023-02-04T08:58:18.373Z,4.60
2023-02-04T09:00:45.282Z,4.70
2023-02-04T09:03:12.148Z,4.30
2023-02-04T09:05:39.007Z,4.20
2023-02-04T09:08:06.070Z,4.13
2023-02-04T09:10:33.155Z,5.50
2023-02-04T09:13:00.186Z,4.20
2023-02-04T09:15:27.169Z,4.65
2023-02-04T09:17:55.861Z,4.55
2023-02-04T09:20:22.739Z,4.13
2023-02-04T09:22:50.308Z,4.07
2023-02-04T09:25:17.281Z,4.18
2023-02-04T09:27:44.203Z,3.83
2023-02-04T09:30:12.037Z,4.00
2023-02-04T09:32:38.916Z,4.13
2023-02-04T09:35:06.032Z,4.15
2023-02-04T09:37:33.186Z,3.75
2023-02-04T09:40:00.052Z,4.15
2023-02-04T09:42:30.226Z,3.80
2023-02-04T09:44:59.549Z,3.80
2023-02-04T09:47:27.483Z,4.30
2023-02-04T09:49:54.655Z,3.85
2023-02-04T09:52:24.508Z,3.90
2023-02-04T09:54:51.532Z,3.60
2023-02-04T09:57:20.766Z,3.58
2023-02-04T09:59:47.753Z,3.00
2023-02-04T10:02:27.118Z,3.50
2023-02-04T10:04:58.033Z,3.33
2023-02-04T10:07:27.489Z,3.45
2023-02-04T10:09:55.424Z,3.13
2023-02-04T10:12:23.007Z,3.00
2023-02-04T10:14:50.288Z,3.38
2023-02-04T10:17:22.496Z,3.05
2023-02-04T10:19:50.339Z,2.92
2023-02-04T10:22:22.869Z,6.28
2023-02-04T10:24:49.823Z,3.80
2023-02-04T10:27:16.751Z,4.25
2023-02-04T10:29:56.925Z,4.07
2023-02-04T10:32:33.436Z,4.55
2023-02-04T10:35:04.506Z,4.60
2023-02-04T10:37:32.239Z,3.63
2023-02-04T10:39:59.272Z,3.85
2023-02-04T10:42:31.436Z,4.47
2023-02-04T10:44:59.976Z,3.80
2023-02-04T10:47:31.114Z,3.50
2023-02-04T10:50:07.273Z,3.67
2023-02-04T10:52:39.609Z,4.75
2023-02-04T10:55:15.008Z,7.15
2023-02-04T10:57:45.767Z,5.97
2023-02-04T11:00:26.292Z,4.60
2023-02-04T11:03:04.056Z,5.18
2023-02-04T11:05:36.585Z,4.95
2023-02-04T11:08:26.502Z,4.47
2023-02-04T11:11:00.900Z,3.05
2023-02-04T11:13:45.088Z,4.65
2023-02-04T11:16:29.000Z,3.95
2023-02-04T11:19:00.994Z,3.72
2023-02-04T11:21:33.759Z,2.80
2023-02-04T11:24:33.716Z,3.60
2023-02-04T11:27:40.429Z,2.85
2023-02-04T11:30:22.190Z,3.30
2023-02-04T11:33:05.309Z,3.70
2023-02-04T11:38:00.232Z,3.92
2023-02-04T11:40:29.178Z,4.30
2023-02-04T11:43:10.226Z,4.30
2023-02-04T11:45:38.874Z,4.45
2023-02-04T11:48:21.638Z,5.53
2023-02-04T11:51:02.606Z,5.07
2023-02-04T11:53:32.114Z,5.32
2023-02-04T11:56:00.581Z,16.35
2023-02-04T11:58:31.126Z,6.18
2023-02-04T12:00:58.558Z,6.07
2023-02-04T12:03:31.533Z,4.65
2023-02-04T12:08:36.864Z,4.20
2023-02-04T12:11:32.932Z,4.65
2023-02-04T12:14:09.554Z,5.43
2023-02-04T12:16:46.595Z,3.75
2023-02-04T12:19:14.525Z,4.63
2023-02-04T12:21:45.112Z,6.00
2023-02-04T12:24:11.973Z,10.85
2023-02-04T12:26:38.877Z,9.85
2023-02-04T12:29:05.786Z,7.10
2023-02-04T12:31:33.707Z,6.15
2023-02-04T12:34:00.931Z,5.93
2023-02-04T12:36:29.852Z,3.50
2023-02-04T12:39:00.569Z,3.30
2023-02-04T12:41:28.399Z,3.33
2023-02-04T12:43:55.730Z,4.95
2023-02-04T12:46:23.367Z,3.70
2023-02-04T12:48:50.265Z,3.25
2023-02-04T12:51:17.111Z,4.10
2023-02-04T12:53:43.965Z,3.33
2023-02-04T12:56:10.855Z,3.85
2023-02-04T12:58:37.717Z,4.50
2023-02-04T13:01:04.830Z,4.55
2023-02-04T13:03:32.580Z,5.63
2023-02-04T13:05:59.645Z,4.38
2023-02-04T13:08:26.494Z,4.00
2023-02-04T13:10:53.628Z,4.07
2023-02-04T13:13:22.309Z,4.00
2023-02-04T13:15:49.388Z,4.32
2023-02-04T13:18:17.513Z,4.38
2023-02-04T13:20:46.029Z,3.83
2023-02-04T13:23:13.994Z,4.60
2023-02-04T13:25:40.939Z,4.57
2023-02-04T13:28:07.991Z,4.80
2023-02-04T13:30:35.027Z,4.43
2023-02-04T13:33:02.262Z,4.95
2023-02-04T13:35:29.097Z,4.13
2023-02-04T13:37:56.635Z,4.28
2023-02-04T13:40:23.528Z,3.42
2023-02-04T13:42:50.551Z,3.60
2023-02-04T13:45:19.073Z,3.60
2023-02-04T13:47:47.999Z,3.47
2023-02-04T13:50:19.066Z,2.85
2023-02-04T13:52:46.139Z,3.47
2023-02-04T13:55:13.098Z,3.50
2023-02-04T13:57:39.943Z,3.42
2023-02-04T14:00:08.493Z,3.42
2023-02-04T14:02:35.751Z,4.10
2023-02-04T14:05:02.731Z,3.13
2023-02-04T14:07:30.597Z,3.50
2023-02-04T14:09:57.634Z,3.17
2023-02-04T14:12:24.638Z,3.35
2023-02-04T14:14:51.605Z,4.10
2023-02-04T14:17:18.561Z,4.43
2023-02-04T14:19:45.532Z,4.28
2023-02-04T14:22:13.337Z,4.00
2023-02-04T14:24:42.711Z,4.00
2023-02-04T14:27:11.090Z,4.40
2023-02-04T14:29:38.052Z,3.92
2023-02-04T14:32:05.252Z,4.30
2023-02-04T14:34:32.307Z,3.95
2023-02-04T14:36:59.363Z,3.55
2023-02-04T14:39:26.264Z,3.50
2023-02-04T14:41:53.304Z,4.10
2023-02-04T14:44:21.002Z,4.75
2023-02-04T14:46:49.088Z,3.58
2023-02-04T14:49:18.816Z,3.35
2023-02-04T14:51:45.968Z,4.13
2023-02-04T14:54:13.693Z,4.28
2023-02-04T14:56:40.635Z,4.38
2023-02-04T14:59:07.545Z,4.65
2023-02-04T15:01:34.621Z,5.13
2023-02-04T15:04:01.694Z,4.93
2023-02-04T15:06:28.655Z,4.60
2023-02-04T15:08:57.218Z,4.38
2023-02-04T15:11:24.069Z,4.05
2023-02-04T15:13:50.886Z,4.00
2023-02-04T15:16:17.733Z,4.32
2023-02-04T15:18:44.893Z,4.40
2023-02-04T15:21:13.114Z,4.13
2023-02-04T15:23:40.181Z,4.47
2023-02-04T15:26:07.135Z,4.38
2023-02-04T15:28:33.982Z,5.35
2023-02-04T15:31:02.042Z,4.93
2023-02-04T15:33:29.034Z,5.38
2023-02-04T15:35:55.962Z,6.32
2023-02-04T15:38:23.129Z,5.88
2023-02-04T15:40:50.124Z,5.78
2023-02-04T15:43:17.131Z,8.70
2023-02-04T15:45:44.135Z,6.60
2023-02-04T15:48:11.565Z,6.55
2023-02-04T15:50:39.914Z,6.85
2023-02-04T15:53:06.900Z,7.32
2023-02-04T15:55:34.884Z,7.57
2023-02-04T15:58:06.792Z,7.05
2023-02-04T16:00:35.149Z,6.25
2023-02-04T16:03:02.215Z,6.75
2023-02-04T16:05:29.368Z,9.43
2023-02-04T16:07:56.350Z,8.55
2023-02-04T16:10:25.522Z,7.70
2023-02-04T16:12:57.254Z,9.27
2023-02-04T16:15:24.932Z,6.53
2023-02-04T16:17:54.842Z,7.63
2023-02-04T16:20:21.889Z,7.50
2023-02-04T16:22:49.095Z,7.20
2023-02-04T16:25:16.502Z,6.10
2023-02-04T16:27:43.536Z,6.20
2023-02-04T16:30:12.800Z,7.00
2023-02-04T16:32:39.948Z,6.97
2023-02-04T16:35:07.296Z,6.97
2023-02-04T16:37:35.150Z,7.10
2023-02-04T16:40:03.871Z,5.70
2023-02-04T16:42:31.501Z,5.15
2023-02-04T16:45:00.472Z,5.85
2023-02-04T16:47:27.476Z,5.75
2023-02-04T16:49:59.168Z,5.80
2023-02-04T16:52:26.626Z,5.10
2023-02-04T16:54:54.090Z,5.20
2023-02-04T16:57:21.035Z,5.45
2023-02-04T16:59:48.011Z,4.53
2023-02-04T17:02:15.886Z,4.15
2023-02-04T17:04:42.693Z,4.25
2023-02-04T17:07:09.773Z,5.13
2023-02-04T17:09:37.662Z,8.65
2023-02-04T17:12:05.021Z,4.75
2023-02-04T17:14:31.887Z,7.57
2023-02-04T17:16:58.705Z,6.15
2023-02-04T17:19:25.670Z,5.65
2023-02-04T17:21:52.526Z,6.78
2023-02-04T17:24:19.709Z,7.15
2023-02-04T17:26:46.766Z,8.55
2023-02-04T17:29:21.884Z,9.30
2023-02-04T17:31:49.482Z,7.88
2023-02-04T17:34:16.321Z,11.68
2023-02-04T17:36:43.168Z,6.78
2023-02-04T17:39:10.268Z,6.10
2023-02-04T17:41:37.252Z,7.25
2023-02-04T17:44:04.530Z,6.90
2023-02-04T17:46:31.630Z,7.38
2023-02-04T17:48:59.255Z,7.90
2023-02-04T17:51:26.647Z,9.25
2023-02-04T17:53:53.576Z,5.85
2023-02-04T17:56:21.539Z,5.53
2023-02-04T17:58:49.437Z,10.93
2023-02-04T18:01:21.600Z,6.30
2023-02-04T18:03:48.965Z,6.15
2023-02-04T18:06:23.445Z,7.35
2023-02-04T18:08:51.850Z,5.28
2023-02-04T18:11:24.035Z,6.43
2023-02-04T18:16:27.040Z,5.43
2023-02-04T18:19:20.815Z,6.32
2023-02-04T18:21:53.574Z,5.38
2023-02-04T18:24:36.181Z,5.75
2023-02-04T18:27:24.392Z,10.38
2023-02-04T18:29:56.453Z,7.05
2023-02-04T18:32:40.825Z,5.32
2023-02-04T18:35:23.797Z,4.40
2023-02-04T18:37:54.261Z,6.30
2023-02-04T18:40:28.161Z,7.55
2023-02-04T18:43:09.844Z,5.78
2023-02-04T18:45:37.493Z,5.50
2023-02-04T18:48:20.848Z,6.97
2023-02-04T18:50:54.176Z,5.18
2023-02-04T18:53:34.316Z,5.97
2023-02-04T18:56:13.557Z,6.28
2023-02-04T18:58:49.140Z,6.25
2023-02-04T19:01:29.673Z,6.28
2023-02-04T19:04:04.454Z,5.72
2023-02-04T19:06:53.743Z,6.20
2023-02-04T19:09:31.177Z,4.63
2023-02-04T19:12:13.341Z,4.55
2023-02-04T19:14:44.551Z,6.78
2023-02-04T19:17:15.166Z,4.97
2023-02-04T19:20:00.435Z,5.63
2023-02-04T19:22:46.861Z,6.05
2023-02-04T19:25:36.383Z,11.23
2023-02-04T19:28:27.307Z,5.50
2023-02-04T19:31:03.320Z,7.10
2023-02-04T19:33:42.559Z,5.30
2023-02-04T19:36:36.856Z,6.32
2023-02-04T19:39:30.795Z,6.80
2023-02-04T19:41:58.239Z,5.72
2023-02-04T19:44:46.661Z,6.60
2023-02-04T19:47:45.983Z,7.13
2023-02-04T19:50:19.618Z,7.80
2023-02-04T19:53:01.114Z,6.82
2023-02-04T19:55:41.721Z,6.22
2023-02-04T19:58:24.116Z,8.20
2023-02-04T20:01:08.503Z,7.30
2023-02-04T20:03:46.152Z,8.10
2023-02-04T20:06:33.709Z,8.55
2023-02-04T20:09:25.163Z,8.27
2023-02-04T20:12:11.730Z,9.35
2023-02-04T20:14:57.093Z,9.05
2023-02-04T20:17:35.415Z,10.02
2023-02-04T20:20:29.411Z,10.80
2023-02-04T20:23:02.099Z,11.13
2023-02-04T20:25:48.402Z,12.10
2023-02-04T20:28:41.082Z,9.90
2023-02-04T20:31:25.261Z,11.07
2023-02-04T20:33:56.767Z,11.27
2023-02-04T20:36:26.755Z,11.13
2023-02-04T20:39:32.552Z,10.80
2023-02-04T20:42:42.617Z,10.18
2023-02-04T20:45:40.411Z,12.50
2023-02-04T20:48:16.020Z,12.57
2023-02-04T20:50:52.160Z,13.07
2023-02-04T20:53:31.091Z,15.57
2023-02-04T20:56:05.337Z,23.27
2023-02-04T20:58:41.426Z,16.33
2023-02-04T21:01:33.969Z,14.07
2023-02-04T21:04:34.454Z,11.70
2023-02-04T21:07:23.186Z,11.32
2023-02-04T21:09:51.828Z,14.30
2023-02-04T21:12:19.345Z,10.57
2023-02-04T21:14:46.442Z,10.40
2023-02-04T21:17:13.498Z,11.57
2023-02-04T21:19:40.436Z,10.40
2023-02-04T21:22:07.359Z,12.80
2023-02-04T21:24:34.364Z,12.38
2023-02-04T21:27:01.579Z,13.02
2023-02-04T21:29:28.757Z,12.27
2023-02-04T21:31:55.694Z,11.35
2023-02-04T21:34:23.250Z,11.52
2023-02-04T21:36:50.607Z,11.43
2023-02-04T21:39:17.591Z,10.32
2023-02-04T21:41:44.606Z,11.88
2023-02-04T21:44:11.610Z,11.98
2023-02-04T21:46:38.670Z,11.98
2023-02-04T21:49:05.649Z,13.45
2023-02-04T21:51:40.347Z,13.45
2023-02-04T21:54:07.206Z,14.75
2023-02-04T21:56:34.268Z,19.88
2023-02-04T21:59:01.366Z,14.50
2023-02-04T22:01:28.331Z,17.02
2023-02-04T22:03:55.227Z,15.30
2023-02-04T22:06:22.234Z,13.43
2023-02-04T22:08:49.111Z,14.25
2023-02-04T22:11:15.967Z,15.10
2023-02-04T22:14:01.342Z,18.95
2023-02-04T22:16:28.238Z,22.20
2023-02-04T22:18:55.516Z,26.83
2023-02-04T22:21:23.593Z,26.85
2023-02-04T22:23:50.614Z,24.20
2023-02-04T22:26:17.502Z,23.48
2023-02-04T22:28:44.364Z,22.42
2023-02-04T22:31:12.499Z,20.35
2023-02-04T22:33:39.499Z,18.92
2023-02-04T22:36:06.953Z,17.75
2023-02-04T22:38:33.987Z,17.90
2023-02-04T22:41:01.024Z,18.45
2023-02-04T22:43:27.991Z,17.95
2023-02-04T22:45:54.843Z,16.30
2023-02-04T22:48:21.704Z,17.25
2023-02-04T22:50:49.276Z,19.88
2023-02-04T22:53:16.177Z,20.63
2023-02-04T22:55:43.282Z,23.13
2023-02-04T22:58:10.193Z,27.30
2023-02-04T23:00:45.445Z,28.65
2023-02-04T23:03:12.463Z,28.90
2023-02-04T23:05:39.434Z,25.73
2023-02-04T23:08:13.629Z,25.05
2023-02-04T23:10:41.349Z,22.83
2023-02-04T23:13:09.419Z,22.27
2023-02-04T23:15:36.464Z,21.83
2023-02-04T23:18:05.373Z,20.20
2023-02-04T23:20:33.619Z,16.63
2023-02-04T23:23:00.656Z,15.38
2023-02-04T23:25:28.950Z,14.90
2023-02-04T23:27:56.015Z,12.20
2023-02-04T23:30:24.449Z,11.15
2023-02-04T23:32:51.744Z,11.63
2023-02-04T23:35:18.715Z,10.18
2023-02-04T23:37:45.899Z,10.98
2023-02-04T23:40:13.816Z,10.80
2023-02-04T23:42:40.749Z,9.98
2023-02-04T23:45:08.225Z,9.75
2023-02-04T23:47:35.111Z,10.38
2023-02-04T23:50:02.758Z,9.75
2023-02-04T23:52:29.998Z,8.98
2023-02-04T23:54:57.170Z,9.57
2023-02-04T23:57:24.328Z,9.43
2023-02-04T23:59:51.214Z,10.38
